Time;durP1;ratioP1;P1;durP2;ratioP2;P2;SDS_P1;SDS_P2;PMS_P1;PMS_P2;Temp;Humidity;BMP_temperature;BMP_pressure;BME280_temperature;BME280_humidity;BME280_pressure;Samples;Min_cycle;Max_cycle;Signal;HPM_P1;HPM_P2
2021/01/27 00:00:32;;;;;;;;;;;;;;;-1.20;70.29;96724.37;1790851;78;25863;-82
2021/01/27 00:03:02;;;;;;;;;;;;;;;-1.30;70.37;96725.45;1791828;78;25769;-80
2021/01/27 00:05:32;;;;;;;;;;;;;;;-1.37;70.47;96721.77;1796357;78;28745;-81
2021/01/27 00:07:59;;;;;;;;;;;;;;;-1.39;70.51;96724.57;1791453;78;26131;-80
2021/01/27 00:10:27;;;;;;;;;;;;;;;-1.38;70.60;96722.27;1799040;78;25769;-81
2021/01/27 00:12:54;;;;;;;;;;;;;;;-1.34;70.69;96715.69;1793546;78;26538;-81
2021/01/27 00:15:24;;;;;;;;;;;;;;;-1.30;70.68;96718.34;1791030;78;25713;-80
2021/01/27 00:17:51;;;;;;;;;;;;;;;-1.29;70.61;96713.39;1796764;78;27410;-81
2021/01/27 00:20:20;;;;;;;;;;;;;;;-1.29;70.53;96714.71;1805380;78;25774;-81
2021/01/27 00:22:48;;;;;;;;;;;;;;;-1.27;70.52;96711.42;1822206;78;26199;-81
2021/01/27 00:25:16;;;;;;;;;;;;;;;-1.27;70.48;96715.39;1795695;78;25751;-81
2021/01/27 00:27:43;;;;;;;;;;;;;;;-1.25;70.35;96712.59;1811376;77;25717;-81
2021/01/27 00:30:25;;;;;;;;;;;;;;;-1.32;70.32;96714.18;1798154;78;28467;-81
2021/01/27 00:32:53;;;;;;;;;;;;;;;-1.30;70.36;96709.56;1780250;78;25416;-81
2021/01/27 00:35:25;;;;;;;;;;;;;;;-1.28;70.26;96715.55;1807818;78;25778;-81
2021/01/27 00:37:56;;;;;;;;;;;;;;;-1.28;70.18;96713.73;1808932;78;25748;-81
2021/01/27 00:40:23;;;;;;;;;;;;;;;-1.25;70.13;96713.92;1800083;78;25713;-81
2021/01/27 00:42:51;;;;;;;;;;;;;;;-1.27;70.02;96707.45;1819686;78;27771;-81
2021/01/27 00:45:19;;;;;;;;;;;;;;;-1.37;69.89;96713.34;1828950;77;25649;-81
2021/01/27 00:47:46;;;;;;;;;;;;;;;-1.37;69.94;96708.05;1806537;78;25770;-81
2021/01/27 00:50:15;;;;;;;;;;;;;;;-1.41;69.95;96709.33;1804230;78;25761;-81
2021/01/27 00:52:43;;;;;;;;;;;;;;;-1.37;69.94;96713.83;1832886;77;25736;-81
2021/01/27 00:57:55;;;;;;;;;;;;;;;-1.34;69.97;96714.36;1875696;76;25621;-80
2021/01/27 01:00:25;;;;;;;;;;;;;;;-1.40;69.91;96714.96;1809602;77;25702;-80
2021/01/27 01:02:52;;;;;;;;;;;;;;;-1.48;69.82;96717.56;1798666;77;28389;-80
2021/01/27 01:05:23;;;;;;;;;;;;;;;-1.48;69.91;96721.04;1821410;77;26509;-80
2021/01/27 01:07:51;;;;;;;;;;;;;;;-1.56;69.79;96717.47;1843244;77;25712;-80
2021/01/27 01:10:27;;;;;;;;;;;;;;;-1.60;69.91;96720.10;1802462;77;25730;-80
2021/01/27 01:12:55;;;;;;;;;;;;;;;-1.61;70.05;96720.59;1799090;77;25802;-80
2021/01/27 01:15:23;;;;;;;;;;;;;;;-1.61;70.08;96717.11;1799010;77;27284;-80
2021/01/27 01:17:50;;;;;;;;;;;;;;;-1.59;70.16;96723.92;1798844;77;25742;-80
2021/01/27 01:20:17;;;;;;;;;;;;;;;-1.57;70.15;96713.19;1818740;77;25672;-80
2021/01/27 01:22:47;;;;;;;;;;;;;;;-1.59;70.22;96725.73;1810458;77;25865;-80
2021/01/27 01:25:16;;;;;;;;;;;;;;;-1.59;70.24;96723.09;1804500;77;25769;-80
2021/01/27 01:27:43;;;;;;;;;;;;;;;-1.60;70.33;96718.78;1799049;77;27474;-80
2021/01/27 01:30:27;;;;;;;;;;;;;;;-1.66;70.34;96712.76;1798750;77;25394;-80
2021/01/27 01:32:56;;;;;;;;;;;;;;;-1.71;70.38;96713.73;1831196;77;25720;-80
2021/01/27 01:35:23;;;;;;;;;;;;;;;-1.72;70.47;96710.25;1830570;77;25322;-80
2021/01/27 01:37:51;;;;;;;;;;;;;;;-1.70;70.49;96712.75;1852942;77;25404;-80
2021/01/27 01:40:21;;;;;;;;;;;;;;;-1.73;70.51;96705.10;1847411;77;27837;-80
2021/01/27 01:42:50;;;;;;;;;;;;;;;-1.76;70.50;96710.69;1821407;77;25669;-80
2021/01/27 01:45:29;;;;;;;;;;;;;;;-1.78;70.60;96711.33;1856782;77;25828;-80
2021/01/27 01:47:59;;;;;;;;;;;;;;;-1.77;70.67;96705.89;1847915;77;26174;-80
2021/01/27 01:50:26;;;;;;;;;;;;;;;-1.72;70.69;96703.63;1854507;77;25757;-80
2021/01/27 01:52:55;;;;;;;;;;;;;;;-1.73;70.56;96705.10;1854895;77;27537;-80
2021/01/27 01:55:22;;;;;;;;;;;;;;;-1.71;70.65;96703.14;1839623;77;25768;-80
2021/01/27 01:57:51;;;;;;;;;;;;;;;-1.65;70.54;96703.84;1831896;77;25690;-80
2021/01/27 02:00:19;;;;;;;;;;;;;;;-1.58;70.46;96702.27;1828804;77;25872;-80
2021/01/27 02:02:46;;;;;;;;;;;;;;;-1.53;70.33;96696.00;1815821;77;25575;-80
2021/01/27 02:05:16;;;;;;;;;;;;;;;-1.50;70.17;96695.20;1815438;77;28531;-80
2021/01/27 02:07:44;;;;;;;;;;;;;;;-1.53;70.11;96692.86;1821464;77;25801;-80
2021/01/27 02:10:14;;;;;;;;;;;;;;;-1.54;70.04;96686.39;1835457;77;25752;-80
2021/01/27 02:13:11;;;;;;;;;;;;;;;-1.62;69.87;96682.38;1845481;77;26157;-80
2021/01/27 02:16:01;;;;;;;;;;;;;;;-1.69;69.92;96681.34;1840791;77;25720;-80
2021/01/27 02:18:59;;;;;;;;;;;;;;;-1.73;70.00;96682.12;1832300;77;26763;-80
2021/01/27 02:21:53;;;;;;;;;;;;;;;-1.74;69.98;96680.95;1845423;77;25741;-80
2021/01/27 02:24:46;;;;;;;;;;;;;;;-1.78;69.98;96673.80;1842459;77;25913;-80
2021/01/27 02:27:26;;;;;;;;;;;;;;;-1.88;70.00;96677.86;1838758;77;26302;-80
2021/01/27 02:30:18;;;;;;;;;;;;;;;-1.96;70.03;96680.44;1827096;77;25726;-80
2021/01/27 02:33:16;;;;;;;;;;;;;;;-2.06;70.03;96674.40;1819418;77;27611;-80
2021/01/27 02:35:47;;;;;;;;;;;;;;;-2.05;70.16;96677.36;1830296;77;25679;-80
2021/01/27 02:38:29;;;;;;;;;;;;;;;-2.13;70.15;96678.61;1808208;77;25881;-80
2021/01/27 02:41:02;;;;;;;;;;;;;;;-2.11;70.22;96677.14;1812920;77;25751;-80
2021/01/27 02:43:39;;;;;;;;;;;;;;;-2.05;70.36;96674.71;1845205;77;25758;-80
2021/01/27 02:46:21;;;;;;;;;;;;;;;-2.07;70.17;96671.41;1844996;77;27560;-80
2021/01/27 02:49:11;;;;;;;;;;;;;;;-2.11;70.12;96666.56;1838672;77;25768;-80
2021/01/27 02:51:48;;;;;;;;;;;;;;;-2.10;70.20;96673.03;1834820;77;25769;-80
2021/01/27 02:54:21;;;;;;;;;;;;;;;-2.05;70.27;96676.03;1823697;77;25708;-79
2021/01/27 02:57:04;;;;;;;;;;;;;;;-2.01;70.21;96677.89;1845044;77;25680;-80
2021/01/27 02:59:37;;;;;;;;;;;;;;;-2.02;70.24;96674.41;1845354;77;28442;-80
2021/01/27 03:02:10;;;;;;;;;;;;;;;-1.98;70.15;96681.08;1838266;77;25814;-80
2021/01/27 03:04:39;;;;;;;;;;;;;;;-1.97;70.15;96685.39;1842451;77;25718;-80
2021/01/27 03:07:08;;;;;;;;;;;;;;;-1.92;70.22;96686.23;1757343;79;26162;-80
2021/01/27 03:12:18;;;;;;;;;;;;;;;-1.83;70.39;96684.86;1847159;76;26315;-80
2021/01/27 03:14:46;;;;;;;;;;;;;;;-1.86;70.43;96688.29;1787370;78;25835;-80
2021/01/27 03:17:16;;;;;;;;;;;;;;;-1.86;70.52;96689.12;1792589;78;28519;-80
2021/01/27 03:19:52;;;;;;;;;;;;;;;-1.88;70.59;96694.22;1814842;78;25827;-80
2021/01/27 03:22:22;;;;;;;;;;;;;;;-1.87;70.74;96693.23;1792197;77;25834;-80
2021/01/27 03:25:01;;;;;;;;;;;;;;;-1.86;70.80;96688.29;1796972;77;25862;-80
2021/01/27 03:27:35;;;;;;;;;;;;;;;-1.86;70.86;96690.45;1823376;78;25743;-80
2021/01/27 03:30:04;;;;;;;;;;;;;;;-1.86;70.89;96684.32;1824726;77;27493;-80
2021/01/27 03:32:43;;;;;;;;;;;;;;;-1.86;71.02;96692.26;1810809;77;26065;-80
2021/01/27 03:35:30;;;;;;;;;;;;;;;-1.89;71.10;96686.77;1813924;77;25664;-80
2021/01/27 03:38:07;;;;;;;;;;;;;;;-1.88;71.19;96697.70;1816684;78;25791;-80
2021/01/27 03:40:34;;;;;;;;;;;;;;;-1.92;71.22;96693.68;1811199;78;25797;-80
2021/01/27 03:43:07;;;;;;;;;;;;;;;-1.94;71.26;96693.03;1802541;78;28240;-80
2021/01/27 03:45:37;;;;;;;;;;;;;;;-1.95;71.32;96682.11;1824715;77;26053;-80
2021/01/27 03:48:16;;;;;;;;;;;;;;;-1.93;71.47;96692.51;1804122;78;26247;-80
2021/01/27 03:50:44;;;;;;;;;;;;;;;-1.93;71.55;96689.38;1823983;78;26414;-80
2021/01/27 03:53:17;;;;;;;;;;;;;;;-1.93;71.62;96689.86;1824119;77;25731;-80
2021/01/27 03:56:06;;;;;;;;;;;;;;;-1.93;71.66;96688.05;1800647;78;27503;-80
2021/01/27 03:58:35;;;;;;;;;;;;;;;-1.93;71.62;96690.69;1800329;78;25621;-80
2021/01/27 04:01:11;;;;;;;;;;;;;;;-1.92;71.68;96688.39;1823905;77;25754;-80
2021/01/27 04:03:39;;;;;;;;;;;;;;;-1.93;71.71;96688.53;1831538;77;26317;-80
2021/01/27 04:06:07;;;;;;;;;;;;;;;-1.94;71.74;96682.45;1812277;77;25829;-79
2021/01/27 04:08:34;;;;;;;;;;;;;;;-1.94;71.77;96687.73;1824027;78;27533;-80
2021/01/27 04:11:02;;;;;;;;;;;;;;;-1.93;71.81;96683.25;1784056;78;25718;-80
2021/01/27 04:13:29;;;;;;;;;;;;;;;-1.93;71.87;96681.44;1824419;78;25284;-81
2021/01/27 04:15:57;;;;;;;;;;;;;;;-1.93;71.89;96684.08;1793838;77;25754;-81
2021/01/27 04:18:25;;;;;;;;;;;;;;;-2.00;71.87;96679.07;1824421;78;25760;-81
2021/01/27 04:20:52;;;;;;;;;;;;;;;-2.13;71.94;96677.28;1818879;78;27478;-81
2021/01/27 04:23:19;;;;;;;;;;;;;;;-2.22;72.08;96673.73;1824106;78;25363;-81
2021/01/27 04:25:47;;;;;;;;;;;;;;;-2.25;72.19;96679.81;1822099;78;26116;-81
2021/01/27 04:28:14;;;;;;;;;;;;;;;-2.25;72.26;96681.13;1805571;78;25512;-81
2021/01/27 04:30:41;;;;;;;;;;;;;;;-2.28;72.30;96676.13;1805424;78;25727;-82
2021/01/27 04:33:10;;;;;;;;;;;;;;;-2.29;72.29;96682.40;1797290;78;27493;-81
2021/01/27 04:35:38;;;;;;;;;;;;;;;-2.31;72.33;96677.29;1808796;78;25776;-81
2021/01/27 04:38:06;;;;;;;;;;;;;;;-2.33;72.40;96677.09;1819170;78;25836;-81
2021/01/27 04:40:39;;;;;;;;;;;;;;;-2.32;72.52;96680.08;1790971;78;25774;-81
2021/01/27 04:43:09;;;;;;;;;;;;;;;-2.31;72.57;96677.29;1785794;77;26412;-81
2021/01/27 04:45:36;;;;;;;;;;;;;;;-2.28;72.56;96681.42;1797177;78;27491;-81
2021/01/27 04:48:18;;;;;;;;;;;;;;;-2.25;72.56;96679.32;1787680;78;25779;-81
2021/01/27 04:50:51;;;;;;;;;;;;;;;-2.24;72.60;96679.66;1815630;78;26150;-81
2021/01/27 04:53:31;;;;;;;;;;;;;;;-2.26;72.58;96681.62;1823652;78;26292;-81
2021/01/27 04:56:20;;;;;;;;;;;;;;;-2.25;72.65;96675.84;1824175;77;25708;-81
2021/01/27 04:59:09;;;;;;;;;;;;;;;-2.25;72.77;96675.84;1823254;78;27496;-81
2021/01/27 05:01:56;;;;;;;;;;;;;;;-2.34;72.92;96678.07;1814119;78;25727;-81
2021/01/27 05:04:46;;;;;;;;;;;;;;;-2.39;72.99;96677.67;1801595;77;26469;-80
2021/01/27 05:07:16;;;;;;;;;;;;;;;-2.37;73.07;96684.97;1815287;78;25744;-81
2021/01/27 05:09:57;;;;;;;;;;;;;;;-2.38;73.18;96681.98;1824167;78;25888;-80
2021/01/27 05:12:34;;;;;;;;;;;;;;;-2.42;73.18;96679.31;1799438;78;27502;-81
2021/01/27 05:15:02;;;;;;;;;;;;;;;-2.49;73.23;96682.19;1820736;78;25735;-81
2021/01/27 05:17:28;;;;;;;;;;;;;;;-2.44;73.45;96681.27;1824142;77;25777;-80
2021/01/27 05:19:56;;;;;;;;;;;;;;;-2.42;73.50;96685.92;1786474;78;26264;-81
2021/01/27 05:22:22;;;;;;;;;;;;;;;-2.47;73.46;96681.56;1791941;78;25714;-81
2021/01/27 05:24:49;;;;;;;;;;;;;;;-2.46;73.55;96677.45;1788974;78;27525;-81
2021/01/27 05:27:26;;;;;;;;;;;;;;;-2.44;73.64;96680.78;1824034;77;25842;-81
2021/01/27 05:30:05;;;;;;;;;;;;;;;-2.40;73.71;96677.33;1791857;78;25889;-81
2021/01/27 05:32:54;;;;;;;;;;;;;;;-2.38;73.70;96684.63;1805372;78;25804;-81
2021/01/27 05:35:30;;;;;;;;;;;;;;;-2.35;73.79;96680.38;1809256;78;25786;-81
2021/01/27 05:37:59;;;;;;;;;;;;;;;-2.30;73.83;96680.28;1824091;77;27485;-81
2021/01/27 05:40:34;;;;;;;;;;;;;;;-2.27;73.86;96676.48;1823927;77;25773;-81
2021/01/27 05:45:52;;;;;;;;;;;;;;;-2.21;74.02;96685.15;1837471;76;25672;-80
2021/01/27 05:48:29;;;;;;;;;;;;;;;-2.22;74.07;96680.84;1781467;78;25932;-79
2021/01/27 05:51:10;;;;;;;;;;;;;;;-2.17;74.08;96683.84;1780417;78;28394;-80
2021/01/27 05:53:37;;;;;;;;;;;;;;;-2.16;74.10;96673.61;1806110;78;25674;-80
2021/01/27 05:56:19;;;;;;;;;;;;;;;-2.13;74.14;96674.64;1800602;78;25718;-80
2021/01/27 05:59:07;;;;;;;;;;;;;;;-2.10;74.17;96674.84;1806030;78;25877;-79
2021/01/27 06:01:39;;;;;;;;;;;;;;;-2.07;74.17;96679.84;1817656;78;25721;-80
2021/01/27 06:04:16;;;;;;;;;;;;;;;-2.01;74.18;96685.34;1780865;78;28548;-80
2021/01/27 06:06:52;;;;;;;;;;;;;;;-1.98;74.17;96686.37;1798564;78;25676;-79
2021/01/27 06:09:35;;;;;;;;;;;;;;;-1.96;74.14;96679.12;1792383;78;25812;-80
2021/01/27 06:12:24;;;;;;;;;;;;;;;-1.92;74.11;96680.94;1788458;78;25757;-79
2021/01/27 06:15:06;;;;;;;;;;;;;;;-1.90;74.11;96689.56;1806096;78;26358;-79
2021/01/27 06:17:48;;;;;;;;;;;;;;;-1.88;74.11;96692.41;1795223;78;28587;-80
2021/01/27 06:20:19;;;;;;;;;;;;;;;-1.87;74.04;96688.78;1811573;77;25695;-80
2021/01/27 06:23:11;;;;;;;;;;;;;;;-1.85;74.04;96691.28;1797842;78;25745;-80
2021/01/27 06:25:54;;;;;;;;;;;;;;;-1.86;74.01;96690.45;1817171;77;25769;-79
2021/01/27 06:28:36;;;;;;;;;;;;;;;-1.85;74.03;96694.75;1716049;82;25813;-80
2021/01/27 06:31:29;;;;;;;;;;;;;;;-1.84;74.02;96701.71;1723032;79;28574;-80
2021/01/27 06:34:22;;;;;;;;;;;;;;;-1.83;74.04;96695.44;1743798;79;25772;-79
2021/01/27 06:37:07;;;;;;;;;;;;;;;-1.85;74.02;96699.22;1744911;81;25680;-80
2021/01/27 06:39:43;;;;;;;;;;;;;;;-1.85;74.04;96701.37;1745738;79;25963;-81
2021/01/27 06:42:39;;;;;;;;;;;;;;;-1.84;74.04;96704.84;1738301;80;25792;-81
2021/01/27 06:45:22;;;;;;;;;;;;;;;-1.85;74.02;96702.69;1729165;80;28448;-82
2021/01/27 06:48:20;;;;;;;;;;;;;;;-1.88;73.92;96708.77;1726031;81;25909;-81
2021/01/27 06:50:56;;;;;;;;;;;;;;;-1.88;73.95;96700.83;1735990;80;25732;-82
2021/01/27 06:53:30;;;;;;;;;;;;;;;-1.84;74.03;96706.17;1728424;81;26510;-82
2021/01/27 06:56:09;;;;;;;;;;;;;;;-1.79;74.11;96708.34;1730718;81;25853;-82
2021/01/27 06:58:42;;;;;;;;;;;;;;;-1.85;74.03;96703.19;1730656;80;27610;-82
2021/01/27 07:01:21;;;;;;;;;;;;;;;-1.88;74.08;96701.66;1729888;81;25718;-82
2021/01/27 07:04:27;;;;;;;;;;;;;;;-1.84;74.17;96707.00;1731338;81;26326;-82
2021/01/27 07:07:14;;;;;;;;;;;;;;;-1.75;74.24;96705.25;1760850;78;25792;-82
2021/01/27 07:10:03;;;;;;;;;;;;;;;-1.71;74.14;96709.27;1752377;78;25849;-82
2021/01/27 07:12:45;;;;;;;;;;;;;;;-1.65;74.24;96707.81;1745373;80;28542;-82
2021/01/27 07:15:49;;;;;;;;;;;;;;;-1.57;74.10;96706.05;1808262;77;25792;-82
2021/01/27 07:18:38;;;;;;;;;;;;;;;-1.59;73.99;96705.89;1815491;77;26025;-82
2021/01/27 07:21:26;;;;;;;;;;;;;;;-1.57;74.01;96697.31;1784967;78;25750;-82
2021/01/27 07:24:11;;;;;;;;;;;;;;;-1.54;74.03;96707.08;1811078;77;25748;-82
2021/01/27 07:27:08;;;;;;;;;;;;;;;-1.52;73.95;96707.76;1796363;78;28440;-82
2021/01/27 07:29:41;;;;;;;;;;;;;;;-1.51;73.94;96703.30;1739374;80;26073;-82
2021/01/27 07:32:27;;;;;;;;;;;;;;;-1.45;73.98;96705.34;1747360;81;25827;-82
2021/01/27 07:34:57;;;;;;;;;;;;;;;-1.46;73.90;96695.73;1734114;80;25765;-82
2021/01/27 07:37:28;;;;;;;;;;;;;;;-1.46;73.86;96697.89;1753148;81;25826;-82
2021/01/27 07:40:10;;;;;;;;;;;;;;;-1.46;73.88;96700.55;1753649;81;27583;-82
2021/01/27 07:42:53;;;;;;;;;;;;;;;-1.43;73.93;96704.67;1728953;81;26049;-82
2021/01/27 07:45:27;;;;;;;;;;;;;;;-1.56;73.89;96696.30;1744847;80;25786;-82
2021/01/27 07:48:10;;;;;;;;;;;;;;;-1.63;74.04;96697.91;1764495;80;25766;-82
2021/01/27 07:50:38;;;;;;;;;;;;;;;-1.62;74.23;96702.22;1759655;81;25770;-82
2021/01/27 07:53:26;;;;;;;;;;;;;;;-1.57;74.34;96702.60;1746434;81;28302;-82
2021/01/27 07:56:19;;;;;;;;;;;;;;;-1.59;74.38;96700.11;1767275;80;25752;-82
2021/01/27 07:58:49;;;;;;;;;;;;;;;-1.57;74.45;96706.58;1744221;81;25733;-82
2021/01/27 08:01:41;;;;;;;;;;;;;;;-1.65;74.44;96702.52;1742875;80;25336;-82
2021/01/27 08:04:21;;;;;;;;;;;;;;;-1.62;74.59;96711.48;1742186;81;25808;-81
2021/01/27 08:06:51;;;;;;;;;;;;;;;-1.60;74.69;96712.16;1742804;80;27786;-81
2021/01/27 08:09:30;;;;;;;;;;;;;;;-1.63;74.73;96709.81;1742743;81;25892;-82
2021/01/27 08:12:16;;;;;;;;;;;;;;;-1.66;74.77;96717.56;1740615;81;25856;-81
2021/01/27 08:15:08;;;;;;;;;;;;;;;-1.72;74.74;96713.38;1742797;80;25853;-82
2021/01/27 08:17:51;;;;;;;;;;;;;;;-1.72;74.89;96716.03;1769778;80;25850;-81
2021/01/27 08:20:33;;;;;;;;;;;;;;;-1.68;75.02;96716.05;1757975;80;27578;-82
2021/01/27 08:23:03;;;;;;;;;;;;;;;-1.56;75.13;96725.41;1754004;81;26200;-82
2021/01/27 08:26:05;;;;;;;;;;;;;;;-1.51;75.10;96725.80;1731662;80;25815;-82
2021/01/27 08:28:41;;;;;;;;;;;;;;;-1.52;75.09;96727.61;1736081;80;25790;-81
2021/01/27 08:31:12;;;;;;;;;;;;;;;-1.44;75.17;96728.16;1743930;80;25724;-82
2021/01/27 08:33:49;;;;;;;;;;;;;;;-1.41;75.20;96734.48;1754187;80;28548;-82
2021/01/27 08:36:23;;;;;;;;;;;;;;;-1.35;75.16;96733.88;1746588;80;25898;-82
2021/01/27 08:39:00;;;;;;;;;;;;;;;-1.32;75.08;96735.36;1762834;80;25725;-81
2021/01/27 08:41:58;;;;;;;;;;;;;;;-1.33;75.04;96730.59;1758543;80;26086;-81
2021/01/27 08:44:32;;;;;;;;;;;;;;;-1.30;75.21;96726.77;1754881;80;25772;-82
2021/01/27 08:47:20;;;;;;;;;;;;;;;-1.20;75.22;96727.02;1758902;80;28464;-81
2021/01/27 08:49:58;;;;;;;;;;;;;;;-1.13;75.11;96723.27;1760861;80;26110;-81
2021/01/27 08:52:29;;;;;;;;;;;;;;;-1.03;75.12;96734.59;1753803;80;25822;-81
2021/01/27 08:54:56;;;;;;;;;;;;;;;-0.93;74.99;96734.48;1752115;80;26484;-80
2021/01/27 08:57:36;;;;;;;;;;;;;;;-0.89;74.88;96729.22;1758156;80;26366;-81
2021/01/27 09:00:28;;;;;;;;;;;;;;;-0.82;74.83;96732.39;1758819;80;27512;-81
2021/01/27 09:03:00;;;;;;;;;;;;;;;-0.80;74.64;96730.91;1768345;80;25842;-81
2021/01/27 09:05:30;;;;;;;;;;;;;;;-0.73;74.63;96735.94;1758027;80;26167;-81
2021/01/27 09:08:07;;;;;;;;;;;;;;;-0.72;74.56;96737.08;1763810;80;26407;-80
2021/01/27 09:10:42;;;;;;;;;;;;;;;-0.70;74.40;96739.58;1742768;80;25805;-81
2021/01/27 09:13:34;;;;;;;;;;;;;;;-0.72;74.28;96737.57;1746108;80;27717;-80
2021/01/27 09:16:20;;;;;;;;;;;;;;;-0.70;74.31;96736.92;1750670;80;26392;-80
2021/01/27 09:18:58;;;;;;;;;;;;;;;-0.64;74.28;96737.64;1737862;80;25749;-80
2021/01/27 09:21:26;;;;;;;;;;;;;;;-0.61;74.11;96741.80;1743469;80;25703;-81
2021/01/27 09:24:05;;;;;;;;;;;;;;;-0.61;74.04;96737.33;1741696;81;25754;-80
2021/01/27 09:26:42;;;;;;;;;;;;;;;-0.68;73.96;96737.61;1745200;80;27569;-80
2021/01/27 09:29:15;;;;;;;;;;;;;;;-0.70;73.94;96735.60;1741913;80;25814;-81
2021/01/27 09:31:42;;;;;;;;;;;;;;;-0.79;73.95;96741.36;1755148;80;25790;-81
2021/01/27 09:34:29;;;;;;;;;;;;;;;-0.76;73.95;96737.57;1754927;80;26358;-81
2021/01/27 09:37:08;;;;;;;;;;;;;;;-0.75;73.88;96741.89;1745520;80;25794;-80
2021/01/27 09:39:37;;;;;;;;;;;;;;;-0.71;73.79;96744.54;1742000;80;27748;-80
2021/01/27 09:42:13;;;;;;;;;;;;;;;-0.70;73.68;96744.88;1751226;80;25890;-80
2021/01/27 09:44:41;;;;;;;;;;;;;;;-0.73;73.61;96742.56;1734431;80;25873;-81
2021/01/27 09:47:10;;;;;;;;;;;;;;;-0.72;73.51;96745.52;1742467;80;26169;-80
2021/01/27 09:49:40;;;;;;;;;;;;;;;-0.69;73.40;96751.84;1746325;80;25834;-81
2021/01/27 09:52:12;;;;;;;;;;;;;;;-0.68;73.28;96746.88;1748337;80;27676;-81
2021/01/27 09:54:45;;;;;;;;;;;;;;;-0.66;73.22;96745.41;1732492;80;25919;-81
2021/01/27 09:57:14;;;;;;;;;;;;;;;-0.65;73.02;96747.91;1752612;80;26395;-81
2021/01/27 09:59:42;;;;;;;;;;;;;;;-0.63;72.94;96745.93;1749943;80;25815;-81
2021/01/27 10:02:12;;;;;;;;;;;;;;;-0.63;72.91;96747.25;1735105;80;25831;-80
2021/01/27 10:04:40;;;;;;;;;;;;;;;-0.58;72.84;96746.27;1753019;80;26745;-81
2021/01/27 10:07:16;;;;;;;;;;;;;;;-0.56;72.72;96745.62;1757467;80;25802;-80
2021/01/27 10:09:53;;;;;;;;;;;;;;;-0.58;72.63;96745.44;1744438;80;25835;-80
2021/01/27 10:15:21;;;;;;;;;;;;;;;-0.50;72.28;96737.54;1844062;76;25661;-81
2021/01/27 10:17:52;;;;;;;;;;;;;;;-0.46;72.39;96743.67;1795006;78;26467;-81
2021/01/27 10:20:28;;;;;;;;;;;;;;;-0.44;72.14;96745.67;1759076;80;27624;-80
2021/01/27 10:23:00;;;;;;;;;;;;;;;-0.40;72.08;96737.75;1749420;80;25744;-80
2021/01/27 10:25:37;;;;;;;;;;;;;;;-0.48;71.85;96741.67;1746569;78;25805;-80
2021/01/27 10:28:07;;;;;;;;;;;;;;;-0.46;71.88;96745.00;1750144;78;25825;-81
2021/01/27 10:30:38;;;;;;;;;;;;;;;-0.45;71.72;96740.03;1746611;78;25787;-80
2021/01/27 10:33:05;;;;;;;;;;;;;;;-0.40;71.63;96740.89;1744100;81;27560;-81
2021/01/27 10:35:33;;;;;;;;;;;;;;;-0.37;71.59;96738.77;1759349;80;25738;-81
2021/01/27 10:38:08;;;;;;;;;;;;;;;-0.36;71.54;96745.70;1758810;80;25787;-81
2021/01/27 10:40:35;;;;;;;;;;;;;;;-0.36;71.43;96746.19;1766156;80;25922;-81
2021/01/27 10:43:06;;;;;;;;;;;;;;;-0.44;71.33;96743.02;1763440;79;25882;-80
2021/01/27 10:45:36;;;;;;;;;;;;;;;-0.51;71.21;96745.98;1761390;80;28545;-81
2021/01/27 10:48:13;;;;;;;;;;;;;;;-0.54;71.23;96738.34;1770646;79;27251;-81
2021/01/27 10:50:46;;;;;;;;;;;;;;;-0.60;71.11;96740.28;1763516;79;25826;-78
2021/01/27 10:53:17;;;;;;;;;;;;;;;-0.67;71.17;96739.27;1757409;80;25762;-78
2021/01/27 10:55:57;;;;;;;;;;;;;;;-0.78;71.17;96740.38;1759924;79;25800;-79
2021/01/27 10:58:25;;;;;;;;;;;;;;;-0.80;71.31;96733.56;1765904;80;27562;-82
2021/01/27 11:00:52;;;;;;;;;;;;;;;-0.77;71.34;96732.77;1759698;79;26157;-81
2021/01/27 11:03:19;;;;;;;;;;;;;;;-0.69;71.43;96741.24;1758723;80;25734;-81
2021/01/27 11:05:47;;;;;;;;;;;;;;;-0.68;71.40;96736.28;1766888;80;25782;-81
2021/01/27 11:08:32;;;;;;;;;;;;;;;-0.67;71.40;96733.14;1757243;80;26211;-81
2021/01/27 11:11:01;;;;;;;;;;;;;;;-0.72;71.39;96736.77;1760457;80;26963;-82
2021/01/27 11:13:31;;;;;;;;;;;;;;;-0.72;71.53;96724.32;1770784;80;26171;-82
2021/01/27 11:15:58;;;;;;;;;;;;;;;-0.68;71.59;96723.03;1761431;80;26325;-80
2021/01/27 11:18:25;;;;;;;;;;;;;;;-0.66;71.57;96722.87;1771833;80;25757;-81
2021/01/27 11:20:52;;;;;;;;;;;;;;;-0.65;71.55;96718.74;1780512;79;25286;-81
2021/01/27 11:23:21;;;;;;;;;;;;;;;-0.62;71.50;96719.77;1756716;80;28543;-81
2021/01/27 11:25:50;;;;;;;;;;;;;;;-0.70;71.45;96719.70;1757674;80;25852;-82
2021/01/27 11:28:17;;;;;;;;;;;;;;;-0.67;71.51;96720.72;1760174;81;25757;-82
2021/01/27 11:30:44;;;;;;;;;;;;;;;-0.64;71.43;96717.76;1759209;80;25346;-82
2021/01/27 11:33:11;;;;;;;;;;;;;;;-0.61;71.39;96717.45;1755752;80;25861;-82
2021/01/27 11:35:38;;;;;;;;;;;;;;;-0.60;71.41;96716.92;1754371;80;27498;-81
2021/01/27 11:38:05;;;;;;;;;;;;;;;-0.58;71.25;96705.67;1770283;80;25774;-81
2021/01/27 11:40:32;;;;;;;;;;;;;;;-0.52;71.29;96707.70;1762020;81;25757;-81
2021/01/27 11:42:59;;;;;;;;;;;;;;;-0.44;71.21;96707.23;1773661;79;26156;-81
2021/01/27 11:45:26;;;;;;;;;;;;;;;-0.36;71.12;96703.27;1769120;80;25770;-82
2021/01/27 11:47:54;;;;;;;;;;;;;;;-0.31;70.97;96700.15;1767377;79;27496;-82
2021/01/27 11:50:24;;;;;;;;;;;;;;;-0.36;70.75;96700.62;1754194;80;25731;-81
2021/01/27 11:52:51;;;;;;;;;;;;;;;-0.42;70.58;96707.91;1756404;80;25878;-81
2021/01/27 11:55:20;;;;;;;;;;;;;;;-0.39;70.67;96707.59;1760150;80;25750;-82
2021/01/27 11:57:47;;;;;;;;;;;;;;;-0.37;70.58;96702.97;1763557;80;25751;-81
2021/01/27 12:00:17;;;;;;;;;;;;;;;-0.36;70.45;96709.90;1758388;80;28494;-81
2021/01/27 12:02:44;;;;;;;;;;;;;;;-0.38;70.33;96707.09;1776733;79;26128;-82
2021/01/27 12:05:12;;;;;;;;;;;;;;;-0.41;70.33;96708.24;1779054;80;25802;-82
2021/01/27 12:07:39;;;;;;;;;;;;;;;-0.39;70.34;96706.77;1758086;80;26248;-81
2021/01/27 12:10:07;;;;;;;;;;;;;;;-0.46;70.22;96707.87;1757044;80;25716;-82
2021/01/27 12:12:34;;;;;;;;;;;;;;;-0.46;70.27;96713.18;1777387;79;27557;-82
2021/01/27 12:15:01;;;;;;;;;;;;;;;-0.40;70.32;96702.45;1763938;80;25721;-82
2021/01/27 12:17:28;;;;;;;;;;;;;;;-0.38;70.32;96697.33;1767550;80;25719;-82
2021/01/27 12:19:55;;;;;;;;;;;;;;;-0.37;70.26;96704.29;1780802;79;25807;-81
2021/01/27 12:22:22;;;;;;;;;;;;;;;-0.26;70.37;96708.96;1766300;79;25880;-82
2021/01/27 12:24:49;;;;;;;;;;;;;;;-0.22;70.21;96710.28;1749176;80;27574;-82
2021/01/27 12:27:16;;;;;;;;;;;;;;;-0.21;70.20;96709.29;1767094;80;26083;-81
2021/01/27 12:29:43;;;;;;;;;;;;;;;-0.24;70.25;96710.96;1758721;80;25832;-81
2021/01/27 12:32:10;;;;;;;;;;;;;;;-0.34;70.26;96707.59;1769788;80;25783;-81
2021/01/27 12:34:37;;;;;;;;;;;;;;;-0.40;70.45;96709.91;1751080;80;25806;-82
2021/01/27 12:37:04;;;;;;;;;;;;;;;-0.37;70.75;96720.20;1759045;80;27544;-82
2021/01/27 12:39:31;;;;;;;;;;;;;;;-0.31;70.83;96709.92;1767162;80;25767;-82
2021/01/27 12:41:58;;;;;;;;;;;;;;;-0.30;70.83;96711.59;1758122;81;25729;-82
2021/01/27 12:44:25;;;;;;;;;;;;;;;-0.24;70.95;96712.28;1754378;79;25382;-82
2021/01/27 12:46:54;;;;;;;;;;;;;;;-0.15;70.92;96711.31;1755026;80;26192;-82
2021/01/27 12:49:22;;;;;;;;;;;;;;;-0.21;70.68;96711.94;1756416;80;27713;-82
2021/01/27 12:51:49;;;;;;;;;;;;;;;-0.22;70.90;96711.61;1750632;80;25810;-82
2021/01/27 12:54:16;;;;;;;;;;;;;;;-0.14;70.94;96717.78;1754282;79;25767;-82
2021/01/27 12:56:43;;;;;;;;;;;;;;;-0.08;70.69;96717.13;1750961;80;25855;-82
2021/01/27 12:59:10;;;;;;;;;;;;;;;-0.31;70.25;96723.19;1766649;80;25855;-82
2021/01/27 13:01:37;;;;;;;;;;;;;;;-0.38;70.36;96730.47;1756300;80;28937;-82
2021/01/27 13:04:04;;;;;;;;;;;;;;;-0.48;70.32;96731.06;1756640;80;25817;-82
2021/01/27 13:06:31;;;;;;;;;;;;;;;-0.44;70.41;96734.23;1755994;80;25825;-83
2021/01/27 13:08:58;;;;;;;;;;;;;;;-0.46;70.29;96733.56;1759300;80;25886;-82
2021/01/27 13:11:25;;;;;;;;;;;;;;;-0.56;70.13;96738.99;1757062;80;25685;-83
2021/01/27 13:13:52;;;;;;;;;;;;;;;-0.56;70.25;96741.64;1763216;80;28708;-82
2021/01/27 13:16:19;;;;;;;;;;;;;;;-0.59;70.17;96739.80;1760983;80;26150;-82
2021/01/27 13:18:48;;;;;;;;;;;;;;;-0.58;70.13;96745.44;1761566;80;25749;-83
2021/01/27 13:21:15;;;;;;;;;;;;;;;-0.51;70.28;96744.66;1754633;80;26319;-81
2021/01/27 13:23:47;;;;;;;;;;;;;;;-0.52;70.24;96747.47;1755901;80;25823;-81
2021/01/27 13:26:11;;;;;;;;;;;;;;;-0.65;70.40;96745.25;1766929;80;27569;-83
2021/01/27 13:28:38;;;;;;;;;;;;;;;-0.72;70.63;96744.20;1765984;80;26108;-83
2021/01/27 13:31:05;;;;;;;;;;;;;;;-0.68;71.00;96748.70;1759811;80;25929;-82
2021/01/27 13:33:32;;;;;;;;;;;;;;;-0.72;71.12;96749.00;1759956;80;26185;-82